Time;durP1;ratioP1;P1;durP2;ratioP2;P2;SDS_P1;SDS_P2;PMS_P1;PMS_P2;Temp;Humidity;BMP_temperature;BMP_pressure;BME280_temperature;BME280_humidity;BME280_pressure;Samples;Min_cycle;Max_cycle;Signal;HPM_P1;HPM_P2
2023/07/12 00:00:21;;;;;;;6.90;4.07;;;;;;;;;;5094146;28;20058;-61
2023/07/12 00:02:48;;;;;;;6.53;4.20;;;;;;;;;;5096606;28;20051;-60
2023/07/12 00:05:17;;;;;;;7.05;4.50;;;;;;;;;;5114898;28;20062;-61
2023/07/12 00:07:45;;;;;;;7.57;4.57;;;;;;;;;;5108034;28;20511;-60
2023/07/12 00:10:14;;;;;;;6.78;4.38;;;;;;;;;;5102460;28;20052;-61
2023/07/12 00:12:43;;;;;;;5.13;4.35;;;;;;;;;;5114442;28;20058;-60
2023/07/12 00:15:20;;;;;;;6.93;4.22;;;;;;;;;;5113770;28;20047;-60
2023/07/12 00:17:48;;;;;;;8.18;4.40;;;;;;;;;;5112570;28;20048;-61
2023/07/12 00:20:18;;;;;;;6.43;4.32;;;;;;;;;;5114301;28;20070;-61
2023/07/12 00:22:45;;;;;;;9.38;4.15;;;;;;;;;;5111968;28;20079;-61
2023/07/12 00:25:12;;;;;;;7.85;3.47;;;;;;;;;;5093750;28;20059;-60
2023/07/12 00:27:39;;;;;;;6.43;3.50;;;;;;;;;;5094074;28;20048;-61
2023/07/12 00:30:10;;;;;;;7.10;3.97;;;;;;;;;;5093693;28;20048;-61
2023/07/12 00:32:37;;;;;;;6.25;3.53;;;;;;;;;;5093690;28;20048;-61
2023/07/12 00:35:04;;;;;;;8.60;4.20;;;;;;;;;;5093603;28;20063;-60
2023/07/12 00:37:32;;;;;;;8.15;3.70;;;;;;;;;;5092420;28;20369;-60
2023/07/12 00:39:59;;;;;;;7.30;4.10;;;;;;;;;;5093204;28;20048;-60
2023/07/12 00:42:29;;;;;;;6.38;3.80;;;;;;;;;;5093875;28;20505;-60
2023/07/12 00:44:57;;;;;;;6.80;3.42;;;;;;;;;;5093514;28;20539;-60
2023/07/12 00:47:24;;;;;;;6.38;2.92;;;;;;;;;;5093784;28;20374;-60
2023/07/12 00:49:51;;;;;;;5.45;2.83;;;;;;;;;;5093259;28;20067;-60
2023/07/12 00:52:19;;;;;;;4.30;2.28;;;;;;;;;;5091827;28;20052;-61
2023/07/12 00:54:49;;;;;;;4.30;2.42;;;;;;;;;;5072880;28;20490;-60
2023/07/12 00:57:16;;;;;;;3.78;2.13;;;;;;;;;;5087412;28;20500;-61
2023/07/12 00:59:43;;;;;;;3.58;2.30;;;;;;;;;;5092928;28;20052;-61
2023/07/12 01:02:10;;;;;;;3.28;1.85;;;;;;;;;;5093344;28;20052;-61
2023/07/12 01:04:38;;;;;;;2.88;1.90;;;;;;;;;;5093108;28;20048;-60
2023/07/12 01:07:05;;;;;;;2.95;2.08;;;;;;;;;;5091393;28;20060;-60
2023/07/12 01:09:33;;;;;;;3.60;2.20;;;;;;;;;;5105294;28;20048;-60
2023/07/12 01:12:01;;;;;;;4.18;2.20;;;;;;;;;;5113408;28;20518;-61
2023/07/12 01:14:28;;;;;;;3.03;1.85;;;;;;;;;;5105596;28;20051;-61
2023/07/12 01:16:57;;;;;;;3.50;1.73;;;;;;;;;;5105282;28;20063;-60
2023/07/12 01:19:24;;;;;;;;;;;;;;;;;;5113662;28;20051;-60
2023/07/12 01:21:55;;;;;;;3.33;1.80;;;;;;;;;;5113477;28;19919;-60
2023/07/12 01:24:23;;;;;;;2.75;1.77;;;;;;;;;;5092126;28;20052;-60
2023/07/12 01:26:51;;;;;;;3.85;1.83;;;;;;;;;;5093142;28;20056;-60
2023/07/12 01:29:18;;;;;;;2.92;2.03;;;;;;;;;;5092660;28;20044;-59
2023/07/12 01:31:45;;;;;;;3.78;2.05;;;;;;;;;;5092881;28;20051;-59
2023/07/12 01:34:19;;;;;;;3.80;2.03;;;;;;;;;;5092333;28;20048;-60
2023/07/12 01:36:49;;;;;;;3.80;2.10;;;;;;;;;;5090920;28;20047;-60
2023/07/12 01:39:17;;;;;;;2.70;1.85;;;;;;;;;;5104246;28;20055;-60
2023/07/12 01:41:44;;;;;;;2.63;1.83;;;;;;;;;;5113100;28;20396;-60
2023/07/12 01:44:11;;;;;;;2.20;1.52;;;;;;;;;;5112578;28;20055;-61
2023/07/12 01:46:37;;;;;;;2.80;2.00;;;;;;;;;;5113052;28;20048;-60
2023/07/12 01:49:05;;;;;;;2.20;1.60;;;;;;;;;;5112561;28;20070;-60
2023/07/12 01:51:31;;;;;;;3.08;1.90;;;;;;;;;;5112297;28;20055;-61
2023/07/12 01:53:58;;;;;;;3.03;1.80;;;;;;;;;;5095061;28;20052;-60
2023/07/12 01:56:29;;;;;;;3.05;1.75;;;;;;;;;;5092045;28;20075;-61
2023/07/12 01:58:56;;;;;;;4.00;2.15;;;;;;;;;;5091254;28;20048;-60
2023/07/12 02:01:23;;;;;;;2.88;1.38;;;;;;;;;;5092633;28;20052;-60
2023/07/12 02:03:52;;;;;;;3.33;2.15;;;;;;;;;;5091974;28;20056;-60
2023/07/12 02:06:19;;;;;;;2.72;1.85;;;;;;;;;;5092377;28;20052;-60
2023/07/12 02:08:46;;;;;;;4.30;2.05;;;;;;;;;;5102333;28;20416;-61
2023/07/12 02:11:14;;;;;;;2.25;1.60;;;;;;;;;;5112564;28;20403;-60
2023/07/12 02:13:42;;;;;;;2.22;1.60;;;;;;;;;;5112334;28;20055;-60
2023/07/12 02:16:11;;;;;;;4.03;2.00;;;;;;;;;;5113203;28;20058;-67
2023/07/12 02:18:38;;;;;;;;;;;;;;;;;;5104870;28;20048;-67
2023/07/12 02:21:04;;;;;;;4.88;2.20;;;;;;;;;;5112715;28;19920;-67
2023/07/12 02:23:31;;;;;;;2.78;1.58;;;;;;;;;;5098498;28;20055;-67
2023/07/12 02:25:58;;;;;;;3.08;1.52;;;;;;;;;;5092399;28;20056;-67
2023/07/12 02:28:25;;;;;;;3.10;1.80;;;;;;;;;;5092430;28;20158;-67
2023/07/12 02:30:53;;;;;;;4.25;1.88;;;;;;;;;;5090653;28;20052;-68
2023/07/12 02:33:22;;;;;;;2.20;1.40;;;;;;;;;;5092208;28;20447;-67
2023/07/12 02:35:50;;;;;;;2.28;1.40;;;;;;;;;;5092087;28;20059;-60
2023/07/12 02:38:17;;;;;;;2.28;1.48;;;;;;;;;;5103802;28;20404;-60
2023/07/12 02:40:44;;;;;;;2.88;1.60;;;;;;;;;;5115951;28;20056;-60
2023/07/12 02:43:16;;;;;;;4.25;1.65;;;;;;;;;;5116110;28;20059;-61
2023/07/12 02:45:47;;;;;;;3.08;1.38;;;;;;;;;;5111513;28;20389;-61
2023/07/12 02:48:15;;;;;;;8.77;1.88;;;;;;;;;;5095795;28;20048;-60
2023/07/12 02:50:42;;;;;;;2.85;1.63;;;;;;;;;;5095418;28;20519;-61
2023/07/12 02:53:14;;;;;;;2.55;1.77;;;;;;;;;;5094804;28;20055;-60
2023/07/12 02:55:41;;;;;;;2.60;1.60;;;;;;;;;;5095792;28;20051;-60
2023/07/12 02:58:08;;;;;;;2.88;1.48;;;;;;;;;;5095862;28;20055;-60
2023/07/12 03:00:35;;;;;;;2.80;1.50;;;;;;;;;;5095775;28;20055;-61
2023/07/12 03:03:02;;;;;;;3.20;1.60;;;;;;;;;;5095585;28;20493;-60
2023/07/12 03:05:33;;;;;;;4.13;1.63;;;;;;;;;;5095311;28;20052;-60
2023/07/12 03:08:03;;;;;;;3.67;1.92;;;;;;;;;;5095203;28;20052;-60
2023/07/12 03:10:30;;;;;;;3.15;1.85;;;;;;;;;;5115838;28;20051;-60
2023/07/12 03:12:56;;;;;;;3.15;1.67;;;;;;;;;;5115729;28;20048;-60
2023/07/12 03:15:24;;;;;;;2.63;1.80;;;;;;;;;;5115425;28;20054;-60
2023/07/12 03:17:52;;;;;;;4.53;2.10;;;;;;;;;;5115252;28;20408;-60
2023/07/12 03:20:19;;;;;;;3.27;2.00;;;;;;;;;;5111267;28;20051;-60
2023/07/12 03:22:47;;;;;;;4.00;2.20;;;;;;;;;;5108472;28;20044;-60
2023/07/12 03:25:14;;;;;;;3.17;2.00;;;;;;;;;;5093431;28;20403;-61
2023/07/12 03:27:41;;;;;;;4.05;2.50;;;;;;;;;;5115212;28;20051;-61
2023/07/12 03:30:08;;;;;;;3.67;2.13;;;;;;;;;;5115389;28;20388;-60
2023/07/12 03:32:35;;;;;;;3.92;2.38;;;;;;;;;;5115191;28;20060;-60
2023/07/12 03:35:02;;;;;;;4.95;2.13;;;;;;;;;;5114816;28;20055;-60
2023/07/12 03:37:29;;;;;;;4.78;2.25;;;;;;;;;;5103183;28;20055;-60
2023/07/12 03:39:57;;;;;;;3.50;2.22;;;;;;;;;;5094757;28;20052;-60
2023/07/12 03:42:24;;;;;;;4.60;2.30;;;;;;;;;;5094883;28;20052;-61
2023/07/12 03:44:51;;;;;;;4.07;2.50;;;;;;;;;;5094416;28;20056;-61
2023/07/12 03:47:21;;;;;;;4.40;2.25;;;;;;;;;;5099145;28;20052;-60
2023/07/12 03:49:51;;;;;;;3.92;2.05;;;;;;;;;;5114851;28;20058;-59
2023/07/12 03:52:21;;;;;;;3.28;1.80;;;;;;;;;;5105463;28;20059;-60
2023/07/12 03:54:50;;;;;;;3.15;1.83;;;;;;;;;;5093981;28;20048;-60
2023/07/12 03:57:18;;;;;;;3.10;1.83;;;;;;;;;;5093970;28;20056;-60
2023/07/12 03:59:45;;;;;;;3.63;2.03;;;;;;;;;;5094144;28;20048;-60
2023/07/12 04:02:12;;;;;;;3.05;1.70;;;;;;;;;;5094601;28;20052;-60
2023/07/12 04:04:39;;;;;;;3.72;2.00;;;;;;;;;;5094804;28;20052;-60
2023/07/12 04:07:05;;;;;;;3.20;1.65;;;;;;;;;;5095058;28;20051;-60
2023/07/12 04:09:32;;;;;;;4.68;1.70;;;;;;;;;;5098206;28;20044;-60
2023/07/12 04:11:59;;;;;;;3.95;2.15;;;;;;;;;;5100228;28;20047;-60
2023/07/12 04:14:27;;;;;;;4.13;1.98;;;;;;;;;;5111900;28;20054;-60
2023/07/12 04:16:54;;;;;;;3.70;1.75;;;;;;;;;;5114240;28;20055;-60
2023/07/12 04:19:21;;;;;;;3.65;1.77;;;;;;;;;;5107763;28;20217;-60
2023/07/12 04:21:47;;;;;;;3.22;2.10;;;;;;;;;;5105845;28;20056;-60
2023/07/12 04:24:14;;;;;;;3.45;1.88;;;;;;;;;;5114560;28;20079;-61
2023/07/12 04:26:41;;;;;;;3.28;2.25;;;;;;;;;;5114518;28;20059;-60
2023/07/12 04:29:08;;;;;;;4.53;1.88;;;;;;;;;;5114042;28;20047;-60
2023/07/12 04:31:36;;;;;;;3.38;1.80;;;;;;;;;;5114347;28;20047;-60
2023/07/12 04:34:02;;;;;;;3.33;1.67;;;;;;;;;;5114466;28;20059;-60
2023/07/12 04:36:29;;;;;;;3.50;1.60;;;;;;;;;;5108722;28;20074;-60
2023/07/12 04:38:56;;;;;;;3.65;1.70;;;;;;;;;;5113209;28;20048;-60
2023/07/12 04:41:23;;;;;;;3.42;1.80;;;;;;;;;;5114738;28;20404;-68
2023/07/12 04:43:50;;;;;;;3.25;1.90;;;;;;;;;;5113684;28;20135;-67
2023/07/12 04:46:17;;;;;;;2.75;1.40;;;;;;;;;;5113727;28;20506;-67
2023/07/12 04:48:45;;;;;;;3.53;1.83;;;;;;;;;;5094985;28;20052;-68
2023/07/12 04:51:12;;;;;;;2.13;1.30;;;;;;;;;;5099703;28;20507;-67
2023/07/12 04:53:39;;;;;;;2.17;1.48;;;;;;;;;;5113498;28;20047;-67
2023/07/12 04:56:05;;;;;;;2.25;1.30;;;;;;;;;;5113829;28;20059;-67
2023/07/12 04:58:33;;;;;;;3.22;1.50;;;;;;;;;;5113416;28;20158;-68
2023/07/12 05:01:00;;;;;;;2.97;1.50;;;;;;;;;;5113238;28;20058;-67
2023/07/12 05:03:27;;;;;;;2.58;1.65;;;;;;;;;;5113383;28;20051;-67
2023/07/12 05:05:57;;;;;;;3.70;1.50;;;;;;;;;;5107665;28;20380;-67
2023/07/12 05:08:24;;;;;;;2.42;1.30;;;;;;;;;;5099744;28;20405;-60
2023/07/12 05:10:51;;;;;;;2.80;1.38;;;;;;;;;;5086743;28;20378;-60
2023/07/12 05:13:17;;;;;;;3.75;1.33;;;;;;;;;;5090409;28;20064;-61
2023/07/12 05:15:47;;;;;;;3.92;1.60;;;;;;;;;;5092477;28;20047;-60
2023/07/12 05:18:13;;;;;;;3.90;1.30;;;;;;;;;;5092082;28;20048;-60
2023/07/12 05:20:40;;;;;;;3.20;1.20;;;;;;;;;;5087210;28;20048;-60
2023/07/12 05:23:08;;;;;;;2.67;1.40;;;;;;;;;;5092602;28;20056;-60
2023/07/12 05:25:35;;;;;;;2.55;1.20;;;;;;;;;;5093012;28;20044;-60
2023/07/12 05:28:02;;;;;;;2.88;1.25;;;;;;;;;;5092551;28;20048;-61
2023/07/12 05:30:30;;;;;;;1.80;1.10;;;;;;;;;;5090735;28;20059;-60
2023/07/12 05:32:57;;;;;;;2.50;1.10;;;;;;;;;;5092846;28;20059;-61
2023/07/12 05:35:24;;;;;;;3.25;1.20;;;;;;;;;;5091916;28;20055;-60
2023/07/12 05:37:51;;;;;;;2.15;1.05;;;;;;;;;;5083437;28;20059;-60
2023/07/12 05:40:20;;;;;;;2.65;1.27;;;;;;;;;;5089256;28;20055;-60
2023/07/12 05:42:46;;;;;;;3.00;1.20;;;;;;;;;;5090460;28;20048;-60
2023/07/12 05:45:14;;;;;;;4.28;1.58;;;;;;;;;;5092438;28;20493;-60
2023/07/12 05:47:42;;;;;;;2.53;1.15;;;;;;;;;;5092383;28;20059;-60
2023/07/12 05:50:11;;;;;;;1.98;1.05;;;;;;;;;;5092525;28;20055;-60
2023/07/12 05:52:38;;;;;;;1.65;0.95;;;;;;;;;;5105801;28;20058;-60
2023/07/12 05:55:06;;;;;;;1.80;1.05;;;;;;;;;;5099709;28;20059;-60
2023/07/12 05:57:34;;;;;;;1.80;0.97;;;;;;;;;;5091863;28;20058;-61
2023/07/12 06:00:02;;;;;;;2.20;0.90;;;;;;;;;;5086475;28;20067;-60
2023/07/12 06:02:29;;;;;;;1.70;1.08;;;;;;;;;;5092169;28;20054;-60
2023/07/12 06:04:55;;;;;;;2.10;1.25;;;;;;;;;;5088895;28;20048;-60
2023/07/12 06:07:22;;;;;;;1.70;1.00;;;;;;;;;;5099591;28;20564;-60
2023/07/12 06:09:49;;;;;;;2.70;1.00;;;;;;;;;;5112403;28;20397;-60
2023/07/12 06:12:16;;;;;;;3.17;1.08;;;;;;;;;;5113700;28;20488;-59
2023/07/12 06:14:44;;;;;;;2.00;1.00;;;;;;;;;;5116243;28;20052;-60
2023/07/12 06:17:11;;;;;;;1.63;0.82;;;;;;;;;;5116479;28;20047;-68
2023/07/12 06:19:37;;;;;;;2.65;0.90;;;;;;;;;;5106194;28;20069;-68
2023/07/12 06:22:04;;;;;;;2.42;1.00;;;;;;;;;;5115342;28;20389;-68
2023/07/12 06:24:31;;;;;;;1.60;0.90;;;;;;;;;;5116287;28;20476;-67
2023/07/12 06:26:58;;;;;;;2.63;1.15;;;;;;;;;;5116473;28;20048;-68
2023/07/12 06:29:25;;;;;;;2.00;1.10;;;;;;;;;;5116630;28;20059;-68
2023/07/12 06:31:54;;;;;;;3.85;0.98;;;;;;;;;;5116690;28;20076;-68
2023/07/12 06:34:22;;;;;;;2.13;1.10;;;;;;;;;;5114968;28;20052;-68
2023/07/12 06:36:48;;;;;;;2.25;1.00;;;;;;;;;;5113860;28;20058;-68
2023/07/12 06:39:16;;;;;;;2.03;0.98;;;;;;;;;;5110928;28;20052;-68
2023/07/12 06:41:42;;;;;;;3.42;1.05;;;;;;;;;;5115615;28;20047;-68
2023/07/12 06:44:09;;;;;;;3.67;1.40;;;;;;;;;;5116483;28;20067;-68
2023/07/12 06:46:36;;;;;;;1.73;1.00;;;;;;;;;;5115230;28;20514;-68
2023/07/12 06:49:04;;;;;;;3.53;1.38;;;;;;;;;;5093555;28;20047;-47
2023/07/12 06:51:31;;;;;;;2.78;1.13;;;;;;;;;;5085209;28;20514;-45
2023/07/12 06:53:58;;;;;;;2.42;1.13;;;;;;;;;;5093634;28;20052;-45
2023/07/12 06:56:24;;;;;;;2.50;1.27;;;;;;;;;;5086848;28;20054;-48
2023/07/12 06:58:51;;;;;;;2.53;1.42;;;;;;;;;;5079359;28;20488;-47
2023/07/12 07:01:18;;;;;;;3.22;1.38;;;;;;;;;;5085361;28;20409;-45
2023/07/12 07:03:45;;;;;;;2.88;1.25;;;;;;;;;;5090861;28;20055;-47
2023/07/12 07:06:13;;;;;;;2.30;1.40;;;;;;;;;;5090660;28;20052;-46
2023/07/12 07:08:40;;;;;;;2.63;1.30;;;;;;;;;;5089357;28;20063;-48
2023/07/12 07:11:06;;;;;;;2.13;1.10;;;;;;;;;;5090231;28;20060;-47
2023/07/12 07:13:33;;;;;;;3.08;1.20;;;;;;;;;;5088139;28;20433;-46
2023/07/12 07:16:00;;;;;;;2.55;1.25;;;;;;;;;;5090884;28;20044;-45
2023/07/12 07:18:28;;;;;;;2.60;0.98;;;;;;;;;;5091859;28;20058;-45
2023/07/12 07:20:55;;;;;;;2.10;1.13;;;;;;;;;;5083613;28;20044;-48
2023/07/12 07:23:23;;;;;;;3.72;1.40;;;;;;;;;;5088091;28;20493;-49
2023/07/12 07:25:50;;;;;;;3.72;1.20;;;;;;;;;;5089114;28;20052;-46
2023/07/12 07:28:17;;;;;;;2.28;1.17;;;;;;;;;;5089395;28;20056;-49
2023/07/12 07:30:44;;;;;;;3.50;1.20;;;;;;;;;;5089523;28;20428;-46
2023/07/12 07:33:11;;;;;;;1.65;0.95;;;;;;;;;;5089934;28;20055;-46
2023/07/12 07:35:38;;;;;;;3.30;1.00;;;;;;;;;;5089992;28;20378;-61
2023/07/12 07:38:05;;;;;;;2.30;0.90;;;;;;;;;;5088852;28;20060;-58
2023/07/12 07:40:33;;;;;;;3.83;1.13;;;;;;;;;;5088354;28;20063;-58
2023/07/12 07:43:00;;;;;;;2.10;0.98;;;;;;;;;;5089302;28;20055;-58
2023/07/12 07:45:27;;;;;;;2.53;1.15;;;;;;;;;;5088354;28;20488;-58
2023/07/12 07:47:53;;;;;;;4.93;1.60;;;;;;;;;;5089231;28;20052;-58
2023/07/12 07:50:21;;;;;;;4.55;1.20;;;;;;;;;;5087432;28;20044;-58
2023/07/12 07:52:47;;;;;;;2.88;1.60;;;;;;;;;;5090056;28;20066;-58
2023/07/12 07:55:14;;;;;;;4.35;1.48;;;;;;;;;;5087649;28;20044;-58
2023/07/12 07:57:43;;;;;;;2.22;1.10;;;;;;;;;;5089155;28;20064;-46
2023/07/12 08:00:10;;;;;;;2.75;1.30;;;;;;;;;;5088130;28;20075;-48
2023/07/12 08:02:37;;;;;;;6.13;1.85;;;;;;;;;;5088210;28;20060;-46
2023/07/12 08:05:04;;;;;;;3.50;1.63;;;;;;;;;;5086027;28;20052;-47
2023/07/12 08:07:37;;;;;;;2.67;1.40;;;;;;;;;;5087286;28;20060;-47
2023/07/12 08:10:04;;;;;;;4.10;1.48;;;;;;;;;;5088926;28;20492;-46
2023/07/12 08:12:31;;;;;;;3.15;1.33;;;;;;;;;;5087523;28;20056;-46
2023/07/12 08:14:59;;;;;;;2.22;1.27;;;;;;;;;;5088198;28;20063;-47
2023/07/12 08:17:26;;;;;;;3.20;1.40;;;;;;;;;;5087411;28;20491;-48
2023/07/12 08:19:53;;;;;;;3.38;1.10;;;;;;;;;;5087592;28;20059;-45
2023/07/12 08:22:20;;;;;;;4.50;1.23;;;;;;;;;;5087664;28;20400;-46
2023/07/12 08:24:47;;;;;;;2.65;1.25;;;;;;;;;;5091444;28;20059;-48
2023/07/12 08:27:16;;;;;;;4.43;1.58;;;;;;;;;;5088282;28;20055;-46
2023/07/12 08:29:42;;;;;;;4.25;1.75;;;;;;;;;;5088257;28;20052;-49
2023/07/12 08:32:11;;;;;;;4.43;1.70;;;;;;;;;;5087599;28;20067;-47
2023/07/12 08:34:38;;;;;;;2.95;1.30;;;;;;;;;;5085882;28;20525;-49
2023/07/12 08:37:05;;;;;;;3.25;1.25;;;;;;;;;;5086374;28;20071;-49
2023/07/12 08:39:33;;;;;;;3.17;1.05;;;;;;;;;;5087448;28;20059;-47
2023/07/12 08:42:01;;;;;;;3.90;1.00;;;;;;;;;;5089851;28;20059;-48
2023/07/12 08:44:30;;;;;;;2.17;1.17;;;;;;;;;;5087313;28;20381;-60
2023/07/12 08:46:56;;;;;;;;;;;;;;;;;;5087825;28;20074;-60
2023/07/12 08:49:25;;;;;;;3.25;1.27;;;;;;;;;;5086523;28;19935;-60
2023/07/12 08:51:57;;;;;;;3.58;1.55;;;;;;;;;;5083727;28;20048;-60
2023/07/12 08:54:25;;;;;;;4.90;1.70;;;;;;;;;;5066550;28;20052;-60
2023/07/12 08:56:59;;;;;;;3.97;1.30;;;;;;;;;;5066947;28;20383;-60
2023/07/12 08:59:26;;;;;;;2.60;1.17;;;;;;;;;;5066229;28;20595;-59
2023/07/12 09:01:54;;;;;;;2.50;1.10;;;;;;;;;;5067154;28;20488;-60
2023/07/12 09:04:24;;;;;;;2.80;1.10;;;;;;;;;;5066502;28;20064;-60
2023/07/12 09:06:54;;;;;;;2.22;1.25;;;;;;;;;;5061040;28;20483;-60
2023/07/12 09:09:21;;;;;;;4.50;1.40;;;;;;;;;;5066327;28;20057;-60
2023/07/12 09:11:48;;;;;;;2.97;1.27;;;;;;;;;;5067473;28;20382;-60
2023/07/12 09:14:15;;;;;;;2.85;1.23;;;;;;;;;;5066049;28;20536;-60
2023/07/12 09:16:42;;;;;;;2.78;1.27;;;;;;;;;;5066989;28;20060;-61
2023/07/12 09:19:13;;;;;;;2.67;1.25;;;;;;;;;;5066599;28;20162;-60
2023/07/12 09:21:40;;;;;;;4.00;1.33;;;;;;;;;;5065583;28;20056;-61
2023/07/12 09:24:11;;;;;;;3.22;1.40;;;;;;;;;;5066410;28;20068;-60
2023/07/12 09:26:38;;;;;;;3.83;1.20;;;;;;;;;;5066745;28;20067;-60
2023/07/12 09:29:06;;;;;;;2.75;1.25;;;;;;;;;;5066315;28;20052;-53
2023/07/12 09:31:34;;;;;;;4.00;1.55;;;;;;;;;;5063919;28;20057;-62
2023/07/12 09:34:04;;;;;;;3.03;1.10;;;;;;;;;;5065341;28;20057;-62
2023/07/12 09:36:34;;;;;;;3.95;1.42;;;;;;;;;;5064807;28;20048;-62
2023/07/12 09:39:02;;;;;;;5.85;1.40;;;;;;;;;;5066448;28;20056;-62
2023/07/12 09:41:30;;;;;;;5.15;1.42;;;;;;;;;;5066249;28;20052;-62
2023/07/12 09:43:57;;;;;;;4.03;1.35;;;;;;;;;;5066206;28;20057;-62
2023/07/12 09:46:32;;;;;;;3.80;1.40;;;;;;;;;;5066102;28;20052;-62
2023/07/12 09:49:01;;;;;;;3.40;1.42;;;;;;;;;;5064331;28;20056;-62
2023/07/12 09:51:36;;;;;;;3.25;1.35;;;;;;;;;;5063743;28;20493;-61
2023/07/12 09:54:07;;;;;;;3.30;1.30;;;;;;;;;;5067918;28;20051;-61
2023/07/12 09:56:39;;;;;;;3.20;1.30;;;;;;;;;;5066343;28;20056;-61
2023/07/12 09:59:11;;;;;;;2.42;1.30;;;;;;;;;;5066158;28;20057;-62
2023/07/12 10:01:41;;;;;;;2.60;1.40;;;;;;;;;;5063158;28;20056;-62
2023/07/12 10:04:20;;;;;;;3.05;1.15;;;;;;;;;;5065769;28;20738;-63
2023/07/12 10:06:48;;;;;;;2.13;1.20;;;;;;;;;;5066388;28;20048;-62
2023/07/12 10:09:20;;;;;;;3.67;1.42;;;;;;;;;;5067134;28;20051;-64
2023/07/12 10:11:51;;;;;;;4.57;1.30;;;;;;;;;;5067329;28;20155;-62
2023/07/12 10:14:20;;;;;;;3.72;1.40;;;;;;;;;;5068816;28;20057;-62
2023/07/12 10:16:49;;;;;;;3.10;1.02;;;;;;;;;;5064136;28;20052;-62
2023/07/12 10:19:18;;;;;;;4.32;1.20;;;;;;;;;;5066470;28;20060;-62
2023/07/12 10:21:45;;;;;;;2.63;1.17;;;;;;;;;;5068428;28;20049;-62
2023/07/12 10:24:14;;;;;;;2.40;0.93;;;;;;;;;;5064654;28;20045;-62
2023/07/12 10:26:41;;;;;;;3.63;1.00;;;;;;;;;;5070805;28;20056;-62
2023/07/12 10:29:14;;;;;;;3.50;1.55;;;;;;;;;;5066220;28;20070;-62
2023/07/12 10:31:44;;;;;;;3.97;1.40;;;;;;;;;;5067496;28;20075;-61
2023/07/12 10:34:24;;;;;;;4.13;1.55;;;;;;;;;;5066118;28;20045;-61
2023/07/12 10:36:52;;;;;;;4.25;1.30;;;;;;;;;;5069202;28;20059;-63
2023/07/12 10:39:19;;;;;;;3.15;1.40;;;;;;;;;;5065943;28;20119;-61
2023/07/12 10:41:47;;;;;;;2.53;1.25;;;;;;;;;;5071529;28;20059;-61
2023/07/12 10:44:20;;;;;;;4.10;1.30;;;;;;;;;;5063487;28;20060;-62
2023/07/12 10:46:49;;;;;;;3.47;1.35;;;;;;;;;;5064441;28;20056;-61
2023/07/12 10:49:21;;;;;;;2.45;1.20;;;;;;;;;;5063986;28;20060;-61
2023/07/12 10:52:03;;;;;;;2.50;1.20;;;;;;;;;;5074782;28;20055;-61
2023/07/12 10:54:43;;;;;;;4.15;1.15;;;;;;;;;;5063883;28;20057;-61
2023/07/12 10:57:23;;;;;;;4.85;1.40;;;;;;;;;;5065923;28;20142;-61
2023/07/12 10:59:59;;;;;;;3.38;1.25;;;;;;;;;;5066766;28;20059;-61
2023/07/12 11:02:27;;;;;;;2.70;1.40;;;;;;;;;;5067766;28;20056;-61
2023/07/12 11:04:54;;;;;;;2.38;1.08;;;;;;;;;;5067171;28;20390;-61
2023/07/12 11:07:33;;;;;;;4.35;1.10;;;;;;;;;;5069083;28;20057;-62
2023/07/12 11:10:15;;;;;;;3.28;1.05;;;;;;;;;;5066272;28;20052;-62
2023/07/12 11:12:46;;;;;;;6.10;1.85;;;;;;;;;;5068788;28;20056;-62
2023/07/12 11:15:21;;;;;;;2.67;1.10;;;;;;;;;;5070103;28;20056;-62
2023/07/12 11:17:50;;;;;;;3.42;1.45;;;;;;;;;;5066495;28;20056;-63
2023/07/12 11:20:24;;;;;;;2.58;1.10;;;;;;;;;;5065961;28;20057;-61
2023/07/12 11:22:53;;;;;;;3.92;1.55;;;;;;;;;;5063625;28;20489;-61
2023/07/12 11:25:25;;;;;;;3.17;1.00;;;;;;;;;;5069125;28;20059;-61
2023/07/12 11:27:56;;;;;;;3.15;1.40;;;;;;;;;;5068854;28;20052;-61
2023/07/12 11:30:44;;;;;;;3.30;1.30;;;;;;;;;;5068635;28;20400;-64
2023/07/12 11:33:29;;;;;;;3.03;1.30;;;;;;;;;;5067932;28;20053;-62
2023/07/12 11:35:58;;;;;;;5.10;1.20;;;;;;;;;;5069895;28;20052;-64
2023/07/12 11:38:26;;;;;;;3.25;1.27;;;;;;;;;;5068847;28;20060;-64
2023/07/12 11:40:54;;;;;;;2.83;1.20;;;;;;;;;;5069530;28;20056;-61
2023/07/12 11:43:32;;;;;;;2.35;1.00;;;;;;;;;;5068200;28;20059;-64
2023/07/12 11:46:01;;;;;;;3.35;1.35;;;;;;;;;;5070059;28;20052;-63
2023/07/12 11:48:30;;;;;;;2.85;1.23;;;;;;;;;;5067828;28;20063;-64
2023/07/12 11:50:57;;;;;;;3.38;1.60;;;;;;;;;;5066600;28;20417;-64
2023/07/12 11:53:24;;;;;;;2.17;0.90;;;;;;;;;;5067937;28;20055;-63
2023/07/12 11:55:51;;;;;;;2.70;1.20;;;;;;;;;;5063936;28;20053;-63
2023/07/12 11:58:19;;;;;;;4.53;1.00;;;;;;;;;;5062264;28;20063;-63
2023/07/12 12:00:46;;;;;;;3.50;1.50;;;;;;;;;;5074395;28;20064;-63
2023/07/12 12:03:15;;;;;;;2.35;1.10;;;;;;;;;;5073529;28;20048;-63
2023/07/12 12:05:44;;;;;;;4.53;1.30;;;;;;;;;;5082665;28;20048;-63
2023/07/12 12:08:11;;;;;;;3.10;1.10;;;;;;;;;;5088817;28;20060;-64
2023/07/12 12:10:40;;;;;;;3.35;1.23;;;;;;;;;;5073952;28;20064;-63
2023/07/12 12:13:20;;;;;;;3.03;1.20;;;;;;;;;;5073717;28;20079;-65
2023/07/12 12:15:48;;;;;;;5.25;1.30;;;;;;;;;;5073755;28;20075;-64
2023/07/12 12:18:17;;;;;;;3.15;1.05;;;;;;;;;;5073242;28;20052;-64
2023/07/12 12:20:52;;;;;;;2.92;1.20;;;;;;;;;;5080795;28;20457;-64
2023/07/12 12:23:21;;;;;;;3.28;1.17;;;;;;;;;;5087187;28;20048;-64
2023/07/12 12:25:48;;;;;;;3.80;1.00;;;;;;;;;;5073624;28;20052;-64
2023/07/12 12:28:24;;;;;;;3.10;1.10;;;;;;;;;;5073643;28;20059;-64
2023/07/12 12:30:58;;;;;;;2.95;1.13;;;;;;;;;;5053377;28;20398;-63
2023/07/12 12:33:27;;;;;;;1.52;0.80;;;;;;;;;;5053829;28;20049;-63
2023/07/12 12:35:57;;;;;;;3.25;0.98;;;;;;;;;;5079252;28;20063;-64
2023/07/12 12:38:27;;;;;;;3.55;1.00;;;;;;;;;;5093645;28;20059;-63
2023/07/12 12:40:57;;;;;;;3.17;1.20;;;;;;;;;;5088536;28;20052;-63
2023/07/12 12:43:25;;;;;;;2.85;1.30;;;;;;;;;;5093218;28;20048;-63
2023/07/12 12:45:52;;;;;;;;;;;;;;;;;;5075529;28;20386;-63
2023/07/12 12:48:19;;;;;;;3.50;1.20;;;;;;;;;;5073130;28;19927;-63
2023/07/12 12:50:50;;;;;;;3.92;1.77;;;;;;;;;;5079793;28;20067;-64
2023/07/12 12:53:18;;;;;;;3.60;1.63;;;;;;;;;;5100924;28;20052;-64
2023/07/12 12:55:48;;;;;;;4.55;1.35;;;;;;;;;;5092848;28;20048;-62
2023/07/12 12:58:14;;;;;;;3.28;1.20;;;;;;;;;;5093891;28;20059;-62
2023/07/12 13:00:42;;;;;;;3.28;1.48;;;;;;;;;;5092835;28;20078;-63
2023/07/12 13:03:12;;;;;;;4.17;1.37;;;;;;;;;;5093096;28;20048;-62
2023/07/12 13:05:39;;;;;;;3.13;1.02;;;;;;;;;;5093704;28;20054;-62
2023/07/12 13:08:15;;;;;;;3.65;1.15;;;;;;;;;;5112169;28;20060;-62
2023/07/12 13:10:42;;;;;;;2.95;1.27;;;;;;;;;;5103391;28;20048;-63
2023/07/12 13:13:13;;;;;;;2.75;1.08;;;;;;;;;;5092379;28;20048;-63
2023/07/12 13:15:40;;;;;;;3.85;1.05;;;;;;;;;;5096590;28;20047;-62
2023/07/12 13:18:10;;;;;;;3.10;1.17;;;;;;;;;;5113128;28;20420;-62
2023/07/12 13:20:36;;;;;;;3.15;1.17;;;;;;;;;;5106975;28;20043;-62
2023/07/12 13:23:03;;;;;;;2.30;1.17;;;;;;;;;;5113132;28;20047;-62
2023/07/12 13:25:31;;;;;;;3.53;1.10;;;;;;;;;;5092642;28;20397;-62
2023/07/12 13:27:58;;;;;;;3.33;1.20;;;;;;;;;;5092799;28;20052;-61
2023/07/12 13:30:28;;;;;;;3.35;1.25;;;;;;;;;;5092764;28;20392;-62
2023/07/12 13:32:55;;;;;;;4.35;1.48;;;;;;;;;;5085074;28;20408;-62
2023/07/12 13:35:23;;;;;;;3.25;1.08;;;;;;;;;;5090304;28;20059;-63
2023/07/12 13:37:50;;;;;;;3.33;1.02;;;;;;;;;;5108715;28;20063;-62
2023/07/12 13:40:18;;;;;;;3.72;1.30;;;;;;;;;;5112901;28;20067;-63
2023/07/12 13:42:46;;;;;;;2.80;1.30;;;;;;;;;;5093781;28;20048;-62
2023/07/12 13:45:14;;;;;;;2.05;1.05;;;;;;;;;;5092237;28;20081;-62
2023/07/12 13:47:41;;;;;;;3.67;1.35;;;;;;;;;;5092158;28;20060;-63
2023/07/12 13:50:12;;;;;;;4.20;1.25;;;;;;;;;;5090806;28;20047;-62
2023/07/12 13:52:39;;;;;;;2.42;1.10;;;;;;;;;;5099399;28;20047;-62
2023/07/12 13:55:06;;;;;;;5.53;1.33;;;;;;;;;;5112352;28;20078;-62
2023/07/12 13:57:34;;;;;;;3.67;1.35;;;;;;;;;;5099174;28;20056;-63
2023/07/12 14:00:04;;;;;;;4.03;1.23;;;;;;;;;;5092320;28;20477;-63
2023/07/12 14:02:33;;;;;;;3.90;1.60;;;;;;;;;;5092412;28;20432;-63
2023/07/12 14:05:01;;;;;;;2.57;1.10;;;;;;;;;;5092074;28;20051;-63
2023/07/12 14:07:29;;;;;;;4.57;1.33;;;;;;;;;;5092652;28;20063;-63
2023/07/12 14:09:57;;;;;;;6.88;1.40;;;;;;;;;;5083517;28;20052;-63
2023/07/12 14:12:25;;;;;;;5.28;1.30;;;;;;;;;;5090053;28;20048;-62
2023/07/12 14:14:52;;;;;;;3.00;1.00;;;;;;;;;;5090857;28;20043;-63
2023/07/12 14:17:24;;;;;;;3.15;1.10;;;;;;;;;;5091684;28;20492;-63
2023/07/12 14:19:52;;;;;;;3.75;1.17;;;;;;;;;;5091908;28;20094;-62
2023/07/12 14:22:20;;;;;;;3.13;1.25;;;;;;;;;;5095904;28;20048;-63
2023/07/12 14:24:47;;;;;;;7.03;1.40;;;;;;;;;;5095612;28;20485;-63
2023/07/12 14:27:16;;;;;;;3.00;1.00;;;;;;;;;;5091566;28;20052;-63
2023/07/12 14:29:43;;;;;;;;;;;;;;;;;;5092492;28;20056;-62
2023/07/12 14:32:16;;;;;;;3.03;0.98;;;;;;;;;;5091555;28;19920;-62
2023/07/12 14:34:44;;;;;;;4.82;1.33;;;;;;;;;;5113546;28;20058;-63
2023/07/12 14:37:12;;;;;;;2.35;1.17;;;;;;;;;;5109613;28;20051;-63
2023/07/12 14:39:39;;;;;;;3.28;1.00;;;;;;;;;;5096636;28;20063;-62
2023/07/12 14:42:06;;;;;;;2.70;1.17;;;;;;;;;;5095412;28;20063;-62
2023/07/12 14:44:33;;;;;;;2.40;1.00;;;;;;;;;;5094788;28;20408;-61
2023/07/12 14:47:00;;;;;;;2.88;1.10;;;;;;;;;;5095206;28;20052;-62
2023/07/12 14:49:26;;;;;;;3.25;0.93;;;;;;;;;;5094472;28;20061;-62
2023/07/12 14:51:55;;;;;;;4.50;1.08;;;;;;;;;;5105773;28;20496;-62